Aeroporto :
LOGIN :

Iscrizione | Disclaimer

   EN    FR    IT 

 










Sommario :    VFR   VFR Marginale   IFR   IFR Intensivo   IFR Molto Intensivo
Visibilità : 
Base nubi : 
>= 8 km
>= 3000ft
5 / 8 km
1000 / 3000 ft
1500m / 5 km
500 / 1000 ft
800 / 1500m
200 / 500 ft
< 800m
< 200 ft
Simboli :   Temporali  Nebbia  Neve Forte  Precipitazioni Forti  Vento > 20 kt
SIGMETs :   Varie  Temporali  Ghiacco  Turbolenza  Onda orograficha  Ceneri Vulcaniche






- Altitudine del aeroporto : 659 ft
- Codice IATA : LGG


EBLG - Liège

ULTIMO METAR :
  • 290420Z 34007KT 9999 SCT022 BKN046 02/M02 Q1025 NOSIG

METARs OBSOLETI :
  • 290350Z 34008KT 9999 FEW031 BKN046 02/M02 Q1026 NOSIG
  • 290320Z 35007KT 9999 FEW033 02/M02 Q1026 NOSIG
  • 290250Z 34005KT 310V010 9999 BKN042 02/M02 Q1026 NOSIG
  • 290220Z 34005KT 9999 SCT044 02/M02 Q1026 NOSIG
  • 290150Z 36008KT CAVOK 02/M03 Q1026 NOSIG

TAF TAF EBLG
Valido dal 29 a 00 ore il 30 a 06 ore UTC


282310Z 2900/3006 36010KT 9999 SCT018
PROB30 2910/29016 04018G32KT 4500 SHGS SHRASN SCT009 BKN014TCU



MetMap, La meteo Aeronautica in un colpo d'occhio ! - Copyright ORBIFLY Dicembre 2007 - Disclaimer

ORBIFLY MET'MAP TEAM :

Programmazione e sviluppo : Alexandra Zaïnal
Concezione : Baudouin d'Aumeries
Aiuto per la programmazione : Marc-Olivier Méhu
Supporto tecnico e logistico : Manuel Goepfert
Aiuto per la traduzione : Arnaldo La Scala

Contatto : metmap@orbifly.com




FONTI E CREDITI :

   NOAA